Time;durP1;ratioP1;P1;durP2;ratioP2;P2;SDS_P1;SDS_P2;PMS_P1;PMS_P2;Temp;Humidity;BMP_temperature;BMP_pressure;BME280_temperature;BME280_humidity;BME280_pressure;Samples;Min_cycle;Max_cycle;Signal;HPM_P1;HPM_P2
2022/10/19 00:01:02;;;;;;;8.75;6.60;;;11.90;64.80;;;;;;4802517;29;20053;-52
2022/10/19 00:03:33;;;;;;;9.38;7.10;;;11.90;64.70;;;;;;4801576;29;20049;-52
2022/10/19 00:06:19;;;;;;;10.68;7.20;;;11.90;64.70;;;;;;4804515;29;20130;-52
2022/10/19 00:08:46;;;;;;;14.95;8.15;;;11.90;65.00;;;;;;4804418;29;20674;-52
2022/10/19 00:11:12;;;;;;;9.57;7.28;;;11.80;64.80;;;;;;4801630;29;20038;-51
2022/10/19 00:13:39;;;;;;;17.08;6.63;;;11.80;64.70;;;;;;4803902;29;20053;-52
2022/10/19 00:16:12;;;;;;;8.30;6.38;;;11.80;64.80;;;;;;4804381;29;20039;-51
2022/10/19 00:18:42;;;;;;;10.05;6.28;;;11.80;64.90;;;;;;4808902;29;20544;-51
2022/10/19 00:21:10;;;;;;;10.10;6.50;;;11.80;64.80;;;;;;4807886;29;20051;-52
2022/10/19 00:23:43;;;;;;;6.40;4.93;;;11.70;64.70;;;;;;4803832;29;20049;-49
2022/10/19 00:26:11;;;;;;;7.28;4.50;;;11.70;64.70;;;;;;4804035;29;20072;-51
2022/10/19 00:28:38;;;;;;;5.20;4.00;;;11.70;64.80;;;;;;4798483;29;20694;-51
2022/10/19 00:31:08;;;;;;;3.55;2.65;;;11.60;64.80;;;;;;4802389;29;20043;-52
2022/10/19 00:33:35;;;;;;;3.20;2.38;;;11.60;64.80;;;;;;4803566;29;20039;-52
2022/10/19 00:36:03;;;;;;;2.08;1.60;;;11.60;65.00;;;;;;4801605;29;20679;-51
2022/10/19 00:38:29;;;;;;;3.28;1.40;;;11.60;65.00;;;;;;4801416;29;20062;-51
2022/10/19 00:41:01;;;;;;;3.38;1.85;;;11.60;65.00;;;;;;4804119;29;20141;-51
2022/10/19 00:43:30;;;;;;;2.58;2.38;;;11.60;65.00;;;;;;4802518;29;20089;-52
2022/10/19 00:45:56;;;;;;;6.63;2.97;;;11.50;64.80;;;;;;4801572;29;20054;-52
2022/10/19 00:48:30;;;;;;;4.05;3.00;;;11.50;64.90;;;;;;4796402;29;20048;-51
2022/10/19 00:51:00;;;;;;;6.53;3.80;;;11.50;64.90;;;;;;4803869;29;20465;-52
2022/10/19 00:53:29;;;;;;;7.00;3.78;;;11.50;64.90;;;;;;4803935;29;20059;-52
2022/10/19 00:56:06;;;;;;;5.07;3.88;;;11.40;64.90;;;;;;4803845;29;20058;-52
2022/10/19 00:58:33;;;;;;;5.20;3.92;;;11.40;65.00;;;;;;4798111;29;20070;-52
2022/10/19 01:01:03;;;;;;;5.75;3.60;;;11.40;65.00;;;;;;4803983;29;20047;-52
2022/10/19 01:03:32;;;;;;;5.55;3.85;;;11.40;65.00;;;;;;4804132;29;20130;-50
2022/10/19 01:05:59;;;;;;;4.55;3.53;;;11.40;65.10;;;;;;4800134;29;20516;-50
2022/10/19 01:08:26;;;;;;;6.70;4.03;;;11.40;65.10;;;;;;4801629;29;20121;-51
2022/10/19 01:11:23;;;;;;;6.25;4.53;;;11.30;65.00;;;;;;4802902;29;20050;-52
2022/10/19 01:14:18;;;;;;;6.25;4.30;;;11.30;65.00;;;;;;4800411;29;20499;-51
2022/10/19 01:17:06;;;;;;;6.32;4.43;;;11.30;65.00;;;;;;4803767;29;20517;-52
2022/10/19 01:19:44;;;;;;;6.22;4.75;;;11.30;65.00;;;;;;4802696;29;20038;-52
2022/10/19 01:22:32;;;;;;;7.05;5.65;;;11.30;65.10;;;;;;4800800;29;20050;-52
2022/10/19 01:25:23;;;;;;;6.38;4.88;;;11.20;65.00;;;;;;4814394;29;20079;-52
2022/10/19 01:27:55;;;;;;;8.50;5.82;;;11.20;64.90;;;;;;4802855;29;20090;-52
2022/10/19 01:30:46;;;;;;;7.95;5.90;;;11.20;65.00;;;;;;4803001;29;20053;-52
2022/10/19 01:33:40;;;;;;;9.52;6.53;;;11.10;64.90;;;;;;4801253;29;20043;-52
2022/10/19 01:36:13;;;;;;;9.80;6.13;;;11.10;65.10;;;;;;4803210;29;20051;-52
2022/10/19 01:38:53;;;;;;;10.48;6.57;;;11.10;65.00;;;;;;4802705;29;20047;-52
2022/10/19 01:41:31;;;;;;;7.15;6.45;;;11.00;64.90;;;;;;4802604;29;20051;-52
2022/10/19 01:44:30;;;;;;;8.25;6.13;;;11.00;65.00;;;;;;4797402;29;20042;-52
2022/10/19 01:47:07;;;;;;;10.77;5.60;;;11.00;65.10;;;;;;4803562;29;20047;-51
2022/10/19 01:50:02;;;;;;;5.53;4.63;;;11.00;65.00;;;;;;4802247;29;20763;-51
2022/10/19 01:52:31;;;;;;;4.90;3.60;;;10.90;65.10;;;;;;4797915;29;20055;-53
2022/10/19 01:55:00;;;;;;;3.80;3.20;;;10.90;65.00;;;;;;4802337;29;20034;-52
2022/10/19 01:57:35;;;;;;;4.32;3.08;;;10.90;65.10;;;;;;4801911;29;20138;-52
2022/10/19 02:00:06;;;;;;;4.93;3.67;;;10.80;65.10;;;;;;4802251;29;20513;-51
2022/10/19 02:02:43;;;;;;;5.97;3.80;;;10.80;65.00;;;;;;4793377;29;20059;-50
2022/10/19 02:05:14;;;;;;;4.50;3.03;;;10.80;65.10;;;;;;4802251;29;20544;-52
2022/10/19 02:07:45;;;;;;;2.65;2.40;;;10.80;65.20;;;;;;4802968;29;20513;-51
2022/10/19 02:10:14;;;;;;;5.78;2.50;;;10.80;65.30;;;;;;4802479;29;20142;-52
2022/10/19 02:12:46;;;;;;;3.67;2.03;;;10.70;65.30;;;;;;4797427;29;20059;-52
2022/10/19 02:15:18;;;;;;;1.75;1.60;;;10.70;65.30;;;;;;4800787;29;20078;-51
2022/10/19 02:17:50;;;;;;;2.67;1.67;;;10.70;65.30;;;;;;4811016;29;20137;-52
2022/10/19 02:20:17;;;;;;;1.40;1.30;;;10.70;65.30;;;;;;4802796;29;20130;-51
2022/10/19 02:22:44;;;;;;;2.58;1.95;;;10.70;65.30;;;;;;4797098;29;20043;-52
2022/10/19 02:25:14;;;;;;;1.30;1.20;;;10.70;65.20;;;;;;4799973;29;20121;-52
2022/10/19 02:27:41;;;;;;;2.20;1.60;;;10.70;65.30;;;;;;4803420;29;20047;-51
2022/10/19 02:30:11;;;;;;;2.05;1.48;;;10.60;65.30;;;;;;4802784;29;20055;-52
2022/10/19 02:32:38;;;;;;;2.67;1.60;;;10.60;65.30;;;;;;4799872;29;20089;-52
2022/10/19 02:35:05;;;;;;;5.20;2.10;;;10.60;65.30;;;;;;4802126;29;20512;-50
2022/10/19 02:37:34;;;;;;;3.63;2.17;;;10.60;65.30;;;;;;4803273;29;20119;-52
2022/10/19 02:40:03;;;;;;;2.25;1.90;;;10.50;65.20;;;;;;4796878;29;20390;-52
2022/10/19 02:42:34;;;;;;;3.40;2.60;;;10.50;65.30;;;;;;4799945;29;20504;-50
2022/10/19 02:45:11;;;;;;;3.17;2.70;;;10.50;65.20;;;;;;4816453;29;20057;-52
2022/10/19 02:47:48;;;;;;;3.80;2.75;;;10.50;65.20;;;;;;4800531;29;20062;-51
2022/10/19 02:50:15;;;;;;;2.63;2.42;;;10.50;65.30;;;;;;4798985;29;20053;-52
2022/10/19 02:52:42;;;;;;;4.80;2.53;;;10.50;65.30;;;;;;4802312;29;20054;-51
2022/10/19 02:55:09;;;;;;;4.40;2.28;;;10.40;65.30;;;;;;4800996;29;20505;-50
2022/10/19 02:57:37;;;;;;;3.10;2.25;;;10.40;65.30;;;;;;4798740;29;20054;-52
2022/10/19 03:00:06;;;;;;;2.53;2.33;;;10.40;65.30;;;;;;4797616;29;20509;-52
2022/10/19 03:02:32;;;;;;;2.92;2.70;;;10.40;65.20;;;;;;4802351;29;20046;-51
2022/10/19 03:04:59;;;;;;;3.17;2.88;;;10.30;65.20;;;;;;4801961;29;20062;-50
2022/10/19 03:07:26;;;;;;;5.93;2.70;;;10.30;65.20;;;;;;4802759;29;20055;-52
2022/10/19 03:09:53;;;;;;;5.80;3.13;;;10.30;65.30;;;;;;4796219;29;20053;-52
2022/10/19 03:12:23;;;;;;;3.03;2.53;;;10.30;65.30;;;;;;4802750;29;20053;-51
2022/10/19 03:14:50;;;;;;;3.67;2.60;;;10.30;65.30;;;;;;4804897;29;20065;-51
2022/10/19 03:17:16;;;;;;;3.50;2.88;;;10.30;65.30;;;;;;4803403;29;20043;-52
2022/10/19 03:19:43;;;;;;;3.88;2.88;;;10.20;65.30;;;;;;4804780;29;20416;-52
2022/10/19 03:22:12;;;;;;;6.15;3.22;;;10.20;65.30;;;;;;4805910;29;20043;-52
2022/10/19 03:24:41;;;;;;;5.18;3.13;;;10.20;65.40;;;;;;4803397;29;20051;-53
2022/10/19 03:27:07;;;;;;;4.80;2.58;;;10.20;65.30;;;;;;4800383;29;20062;-52
2022/10/19 03:29:36;;;;;;;2.90;2.25;;;10.20;65.30;;;;;;4806301;29;20083;-52
2022/10/19 03:32:03;;;;;;;2.88;2.60;;;10.10;65.30;;;;;;4805722;29;20493;-47
2022/10/19 03:34:30;;;;;;;5.68;2.85;;;10.10;65.40;;;;;;4804567;29;20412;-51
2022/10/19 03:36:58;;;;;;;2.85;2.63;;;10.10;65.40;;;;;;4799842;29;20057;-52
2022/10/19 03:39:24;;;;;;;4.43;2.30;;;10.10;65.50;;;;;;4804276;29;20055;-52
2022/10/19 03:41:51;;;;;;;3.45;2.30;;;10.00;65.40;;;;;;4805940;29;20050;-52
2022/10/19 03:44:19;;;;;;;3.38;2.42;;;10.10;65.60;;;;;;4805118;29;20055;-50
2022/10/19 03:46:49;;;;;;;3.50;2.50;;;10.00;65.50;;;;;;4800747;29;20062;-51
2022/10/19 03:49:18;;;;;;;4.32;2.60;;;10.00;65.40;;;;;;4805339;29;20046;-52
2022/10/19 03:51:46;;;;;;;3.20;2.42;;;10.00;65.50;;;;;;4804994;29;20107;-51
2022/10/19 03:54:15;;;;;;;2.92;2.63;;;10.00;65.50;;;;;;4803106;29;20050;-52
2022/10/19 03:56:42;;;;;;;4.45;2.40;;;10.00;65.50;;;;;;4800785;29;20047;-52
2022/10/19 03:59:13;;;;;;;4.43;2.30;;;10.00;65.60;;;;;;5106737;24;20054;-47
2022/10/19 04:01:44;;;;;;;3.88;2.50;;;10.00;65.60;;;;;;4805013;29;20069;-46
2022/10/19 04:04:17;;;;;;;3.47;2.37;;;10.00;65.60;;;;;;4804877;29;20050;-45
2022/10/19 04:06:46;;;;;;;4.07;2.28;;;9.90;65.50;;;;;;4801692;29;20299;-44
2022/10/19 04:09:16;;;;;;;5.45;2.63;;;9.90;65.50;;;;;;4805020;29;20429;-47
2022/10/19 04:11:43;;;;;;;2.15;1.88;;;9.90;65.50;;;;;;4804818;29;20035;-45
2022/10/19 04:14:13;;;;;;;2.65;1.98;;;9.90;65.40;;;;;;4801133;29;20066;-46
2022/10/19 04:17:04;;;;;;;2.10;1.98;;;9.90;65.50;;;;;;4804635;29;20039;-45
2022/10/19 04:19:38;;;;;;;3.17;2.17;;;9.90;65.60;;;;;;4805535;29;20054;-45
2022/10/19 04:22:05;;;;;;;4.55;2.38;;;9.80;65.40;;;;;;4804238;29;20042;-45
2022/10/19 04:24:32;;;;;;;6.40;2.92;;;9.90;65.50;;;;;;4796520;29;20074;-45
2022/10/19 04:27:00;;;;;;;4.47;2.40;;;9.80;65.50;;;;;;4804548;29;20058;-46
2022/10/19 04:29:27;;;;;;;4.38;2.17;;;9.80;65.60;;;;;;4785832;29;20047;-46
2022/10/19 04:31:56;;;;;;;3.40;2.70;;;9.80;65.60;;;;;;4800183;29;20504;-45
2022/10/19 04:34:23;;;;;;;5.53;2.60;;;9.80;65.60;;;;;;4803432;29;20424;-44
2022/10/19 04:36:53;;;;;;;5.50;2.80;;;9.80;65.70;;;;;;4805084;29;20055;-44
2022/10/19 04:39:20;;;;;;;5.55;2.70;;;9.80;65.70;;;;;;4802965;29;20047;-44
2022/10/19 04:41:46;;;;;;;4.05;2.92;;;9.80;65.70;;;;;;4802453;29;20109;-45
2022/10/19 04:44:14;;;;;;;4.85;2.65;;;9.80;65.70;;;;;;4802098;29;20074;-44
2022/10/19 04:46:41;;;;;;;2.85;2.55;;;9.70;65.60;;;;;;4798994;29;20054;-46
2022/10/19 04:49:07;;;;;;;6.90;2.97;;;9.70;65.70;;;;;;4798500;29;20051;-48
2022/10/19 04:51:34;;;;;;;3.08;2.58;;;9.70;65.70;;;;;;4798150;29;20479;-46
2022/10/19 04:54:02;;;;;;;5.20;2.92;;;9.70;65.80;;;;;;4802245;29;20049;-47
2022/10/19 04:56:31;;;;;;;2.58;2.38;;;9.70;65.80;;;;;;4802290;29;20054;-46
2022/10/19 04:58:59;;;;;;;3.78;2.20;;;9.70;65.80;;;;;;4800646;29;20075;-46
2022/10/19 05:01:27;;;;;;;3.40;2.85;;;9.70;65.90;;;;;;4799767;29;20873;-46
2022/10/19 05:03:55;;;;;;;6.65;3.00;;;9.60;66.00;;;;;;4802244;29;20058;-48
2022/10/19 05:06:28;;;;;;;5.80;3.63;;;9.60;66.20;;;;;;4801708;29;20113;-45
2022/10/19 05:08:55;;;;;;;5.40;3.38;;;9.60;66.40;;;;;;4791410;29;20054;-50
2022/10/19 05:11:22;;;;;;;3.97;3.45;;;9.70;66.40;;;;;;4799165;29;20046;-46
2022/10/19 05:13:49;;;;;;;7.55;3.38;;;9.70;66.40;;;;;;4800291;29;20047;-49
2022/10/19 05:16:19;;;;;;;4.63;3.00;;;9.70;66.40;;;;;;4801093;29;20113;-49
2022/10/19 05:18:47;;;;;;;4.93;3.63;;;9.70;66.40;;;;;;4802600;29;20047;-48
2022/10/19 05:21:15;;;;;;;3.92;3.13;;;9.60;66.20;;;;;;4802038;29;20123;-46
2022/10/19 05:23:42;;;;;;;4.85;3.33;;;9.60;66.20;;;;;;4801845;29;20047;-47
2022/10/19 05:26:18;;;;;;;3.33;2.97;;;9.60;66.20;;;;;;4798912;29;20117;-47
2022/10/19 05:28:49;;;;;;;4.60;3.63;;;9.60;66.20;;;;;;4797674;29;20047;-47
2022/10/19 05:31:18;;;;;;;4.73;3.53;;;9.60;66.20;;;;;;4803795;29;20039;-49
2022/10/19 05:33:46;;;;;;;3.92;3.25;;;9.60;66.10;;;;;;4801548;29;20292;-48
2022/10/19 05:36:24;;;;;;;4.13;3.38;;;9.60;66.00;;;;;;4801396;29;20047;-46
2022/10/19 05:38:53;;;;;;;5.65;4.15;;;9.60;65.90;;;;;;4797397;29;20046;-49
2022/10/19 05:41:21;;;;;;;6.15;3.88;;;9.60;66.60;;;;;;4801581;29;20042;-49
2022/10/19 05:43:58;;;;;;;5.78;3.45;;;9.50;66.10;;;;;;4814811;29;20046;-46
2022/10/19 05:46:26;;;;;;;8.57;3.92;;;9.50;66.10;;;;;;4800722;29;20118;-45
2022/10/19 05:48:54;;;;;;;5.07;3.35;;;9.50;66.10;;;;;;4798997;29;20079;-50
2022/10/19 05:51:22;;;;;;;4.40;3.58;;;9.40;66.10;;;;;;4797370;29;20043;-50
2022/10/19 05:53:49;;;;;;;4.95;3.55;;;9.40;66.20;;;;;;4802520;29;20074;-47
2022/10/19 05:56:19;;;;;;;5.00;3.83;;;9.40;66.20;;;;;;4804271;29;20046;-49
2022/10/19 05:58:46;;;;;;;9.38;4.38;;;9.40;66.20;;;;;;4809971;29;20043;-47
2022/10/19 06:01:13;;;;;;;6.57;3.88;;;9.40;66.40;;;;;;4801980;29;20051;-51
2022/10/19 06:03:40;;;;;;;7.40;4.63;;;9.40;66.50;;;;;;4798109;29;20062;-47
2022/10/19 06:06:10;;;;;;;4.80;4.22;;;9.40;66.60;;;;;;4800422;29;20058;-48
2022/10/19 06:08:37;;;;;;;6.38;4.05;;;9.40;66.70;;;;;;4794715;29;20112;-46
2022/10/19 06:11:14;;;;;;;6.35;3.90;;;9.40;66.70;;;;;;4805685;29;20043;-50
2022/10/19 06:13:43;;;;;;;6.95;4.57;;;9.40;67.00;;;;;;4802422;29;20102;-48
2022/10/19 06:16:11;;;;;;;7.78;5.05;;;9.40;66.90;;;;;;4801498;29;20049;-49
2022/10/19 06:18:39;;;;;;;7.07;5.10;;;9.40;67.30;;;;;;4797337;29;20067;-47
2022/10/19 06:21:12;;;;;;;9.25;5.13;;;9.40;67.60;;;;;;4801118;29;20504;-48
2022/10/19 06:23:42;;;;;;;6.07;5.13;;;9.40;68.00;;;;;;4802492;29;20110;-49
2022/10/19 06:26:12;;;;;;;7.20;5.10;;;9.40;68.00;;;;;;4798631;29;20051;-45
2022/10/19 06:28:40;;;;;;;6.97;4.97;;;9.50;68.10;;;;;;4802550;29;20047;-49
2022/10/19 06:31:07;;;;;;;7.70;5.88;;;9.50;68.30;;;;;;4802720;29;20439;-47
2022/10/19 06:33:35;;;;;;;11.45;5.95;;;9.50;68.50;;;;;;4802742;29;20560;-48
2022/10/19 06:36:06;;;;;;;10.95;6.20;;;9.50;68.80;;;;;;4798400;29;20046;-50
2022/10/19 06:38:33;;;;;;;8.65;6.07;;;9.60;69.70;;;;;;4802288;29;20078;-45
2022/10/19 06:41:00;;;;;;;9.57;6.53;;;9.60;69.90;;;;;;4802710;29;20047;-48
2022/10/19 06:43:27;;;;;;;9.40;6.60;;;9.70;70.20;;;;;;4796662;29;20102;-46
2022/10/19 06:45:54;;;;;;;9.07;6.68;;;9.80;70.60;;;;;;4801632;29;20046;-48
2022/10/19 06:48:21;;;;;;;14.18;7.03;;;9.80;70.80;;;;;;4806019;29;20049;-50
2022/10/19 06:50:56;;;;;;;10.57;7.10;;;9.90;71.10;;;;;;4807090;29;20053;-50
2022/10/19 06:53:23;;;;;;;12.77;7.38;;;10.00;71.80;;;;;;4803495;29;20045;-50
2022/10/19 06:55:50;;;;;;;8.55;6.70;;;10.00;71.40;;;;;;4803400;29;20413;-47
2022/10/19 06:58:17;;;;;;;10.43;6.38;;;10.10;71.60;;;;;;4811004;29;20109;-48
2022/10/19 07:00:43;;;;;;;9.30;6.22;;;10.20;71.60;;;;;;4824584;29;20423;-48
2022/10/19 07:03:10;;;;;;;8.02;6.45;;;10.20;71.40;;;;;;4810373;29;20063;-45
2022/10/19 07:05:37;;;;;;;8.25;5.63;;;10.30;71.30;;;;;;4805471;29;20051;-47
2022/10/19 07:08:03;;;;;;;8.95;6.07;;;10.40;71.20;;;;;;4805473;29;20047;-50
2022/10/19 07:10:32;;;;;;;9.45;6.25;;;10.40;71.30;;;;;;4805805;29;20450;-49
2022/10/19 07:12:59;;;;;;;11.40;6.93;;;10.40;71.40;;;;;;4800997;29;20050;-50
2022/10/19 07:15:26;;;;;;;12.73;7.43;;;10.50;71.60;;;;;;4805388;29;20761;-46
2022/10/19 07:17:52;;;;;;;10.70;7.30;;;10.50;71.80;;;;;;4810961;29;20057;-49
2022/10/19 07:20:19;;;;;;;13.23;8.10;;;10.60;71.90;;;;;;4805385;29;20125;-47
2022/10/19 07:22:46;;;;;;;12.27;7.47;;;10.60;72.20;;;;;;4800978;29;20055;-47
2022/10/19 07:25:13;;;;;;;9.95;7.07;;;10.70;72.50;;;;;;4806414;29;20051;-45
2022/10/19 07:27:39;;;;;;;8.50;6.65;;;10.70;72.80;;;;;;4805635;29;20062;-47
2022/10/19 07:30:06;;;;;;;10.98;7.75;;;10.80;73.00;;;;;;4800906;29;20394;-49
2022/10/19 07:32:33;;;;;;;19.20;8.18;;;10.90;73.30;;;;;;4805129;29;20142;-45
2022/10/19 07:35:02;;;;;;;14.80;8.25;;;10.90;73.50;;;;;;4799450;29;20417;-49
2022/10/19 07:37:28;;;;;;;12.40;7.45;;;11.00;73.70;;;;;;4801268;29;20053;-46
2022/10/19 07:39:55;;;;;;;10.45;7.63;;;11.10;73.90;;;;;;4795528;29;20528;-47
2022/10/19 07:42:22;;;;;;;12.50;7.57;;;11.10;74.00;;;;;;4804023;29;20050;-46
2022/10/19 07:44:48;;;;;;;15.10;8.60;;;11.20;74.10;;;;;;4803759;29;20475;-46
2022/10/19 07:47:15;;;;;;;10.63;8.13;;;11.20;74.30;;;;;;4800844;29;20050;-50
2022/10/19 07:49:42;;;;;;;12.73;8.27;;;11.30;74.40;;;;;;4805739;29;20050;-46
2022/10/19 07:52:08;;;;;;;15.07;8.07;;;11.30;74.40;;;;;;4805327;29;20420;-48
2022/10/19 07:54:35;;;;;;;13.45;8.55;;;11.40;74.50;;;;;;4799687;29;20053;-49
2022/10/19 07:57:02;;;;;;;14.10;8.48;;;11.50;74.70;;;;;;4803348;29;20051;-48
2022/10/19 07:59:28;;;;;;;17.42;9.35;;;11.50;74.80;;;;;;4805699;29;20054;-49
2022/10/19 08:01:56;;;;;;;12.65;9.10;;;11.60;74.80;;;;;;4805377;29;20114;-50
2022/10/19 08:04:22;;;;;;;11.38;8.43;;;11.60;74.80;;;;;;4805278;29;20564;-48
2022/10/19 08:07:09;;;;;;;11.55;8.98;;;11.70;74.90;;;;;;4800400;29;20047;-48
2022/10/19 08:09:36;;;;;;;13.00;9.18;;;11.70;74.70;;;;;;4804559;29;20047;-50
2022/10/19 08:12:20;;;;;;;12.52;8.30;;;11.80;74.80;;;;;;4804119;29;20076;-46
2022/10/19 08:14:48;;;;;;;15.43;8.93;;;11.80;74.70;;;;;;4801180;29;20508;-50
2022/10/19 08:17:16;;;;;;;15.07;9.18;;;11.90;74.80;;;;;;4797240;29;20057;-46
2022/10/19 08:19:44;;;;;;;12.45;8.77;;;11.90;74.80;;;;;;4804717;29;20413;-49
2022/10/19 08:22:11;;;;;;;15.07;9.38;;;11.90;75.00;;;;;;4803798;29;20122;-48
2022/10/19 08:24:40;;;;;;;18.60;9.55;;;12.00;75.00;;;;;;4804841;29;20042;-49
2022/10/19 08:27:07;;;;;;;15.68;10.23;;;12.00;75.20;;;;;;4799645;29;20047;-48
2022/10/19 08:29:34;;;;;;;11.20;8.52;;;12.00;75.10;;;;;;4804365;29;20094;-47
2022/10/19 08:32:00;;;;;;;16.30;9.32;;;12.10;75.20;;;;;;4792442;29;20050;-49
2022/10/19 08:34:27;;;;;;;10.70;8.48;;;12.10;75.30;;;;;;4802639;29;20412;-50
2022/10/19 08:36:53;;;;;;;11.77;8.77;;;12.10;75.30;;;;;;4798584;29;20047;-49
2022/10/19 08:39:20;;;;;;;20.00;10.70;;;12.20;75.40;;;;;;4802093;29;20520;-47
2022/10/19 08:41:47;;;;;;;12.35;8.75;;;12.20;75.40;;;;;;4803325;29;20051;-46
2022/10/19 08:44:52;;;;;;;13.87;9.23;;;12.30;75.60;;;;;;4802564;29;20485;-46
2022/10/19 08:47:31;;;;;;;15.57;8.90;;;12.30;76.50;;;;;;4796429;29;20061;-46
2022/10/19 08:49:58;;;;;;;20.50;9.30;;;12.40;75.40;;;;;;4804483;29;20076;-50
2022/10/19 08:52:31;;;;;;;16.08;10.18;;;12.40;75.40;;;;;;4801795;29;20054;-45
2022/10/19 08:55:07;;;;;;;13.48;9.05;;;12.40;75.60;;;;;;4787586;29;20047;-48
2022/10/19 08:57:50;;;;;;;10.77;9.23;;;12.50;75.60;;;;;;4802936;29;20076;-50
2022/10/19 09:00:20;;;;;;;11.57;9.32;;;12.50;76.10;;;;;;4809867;29;20077;-47
2022/10/19 09:03:08;;;;;;;13.82;8.82;;;12.50;75.30;;;;;;4801840;29;20078;-47
2022/10/19 09:05:49;;;;;;;13.75;9.27;;;12.60;76.10;;;;;;4802665;29;20046;-50
2022/10/19 09:08:17;;;;;;;13.68;9.60;;;12.70;75.50;;;;;;4803474;29;20043;-49
2022/10/19 09:10:49;;;;;;;12.48;9.50;;;12.70;75.20;;;;;;4803581;29;20051;-49
2022/10/19 09:13:35;;;;;;;15.80;9.35;;;12.70;75.30;;;;;;4800697;29;20038;-49
2022/10/19 09:16:20;;;;;;;10.68;8.93;;;12.80;75.40;;;;;;4799878;29;20683;-48
2022/10/19 09:18:48;;;;;;;14.07;9.25;;;12.80;75.00;;;;;;4805065;29;20062;-48
2022/10/19 09:21:20;;;;;;;15.27;9.27;;;12.90;75.10;;;;;;4822011;29;20066;-46
2022/10/19 09:24:21;;;;;;;16.48;9.70;;;12.90;75.10;;;;;;4800538;29;20049;-46
2022/10/19 09:26:54;;;;;;;12.70;8.57;;;12.90;75.30;;;;;;4802973;29;20484;-49
2022/10/19 09:29:31;;;;;;;17.70;8.73;;;13.00;75.00;;;;;;4803826;29;20046;-46
2022/10/19 09:32:02;;;;;;;14.45;8.82;;;13.10;75.10;;;;;;4803408;29;20082;-47
2022/10/19 09:34:35;;;;;;;11.27;8.30;;;13.10;75.00;;;;;;4801398;29;20042;-50
2022/10/19 09:37:02;;;;;;;11.10;7.72;;;13.20;74.90;;;;;;4805061;29;20125;-49
2022/10/19 09:39:29;;;;;;;11.52;7.32;;;13.20;74.50;;;;;;4806945;29;20050;-48
2022/10/19 09:42:03;;;;;;;10.55;8.07;;;13.20;74.80;;;;;;4800770;29;20057;-46
2022/10/19 09:44:30;;;;;;;14.13;8.00;;;13.30;74.30;;;;;;4802634;29;20141;-47
2022/10/19 09:47:23;;;;;;;14.23;8.35;;;13.30;74.10;;;;;;4802264;29;20042;-50
2022/10/19 09:49:50;;;;;;;11.13;8.63;;;13.40;74.40;;;;;;4800139;29;20049;-47
2022/10/19 09:52:44;;;;;;;11.82;7.68;;;13.50;74.00;;;;;;4796630;29;20082;-49
2022/10/19 09:55:13;;;;;;;12.48;8.30;;;13.50;74.20;;;;;;4801189;29;20510;-49
2022/10/19 09:57:48;;;;;;;11.38;7.75;;;13.60;73.70;;;;;;4801630;29;20522;-50
2022/10/19 10:00:24;;;;;;;11.38;7.65;;;13.60;73.50;;;;;;4800877;29;20062;-49
2022/10/19 10:02:53;;;;;;;13.10;7.72;;;13.70;73.40;;;;;;4794602;29;20047;-46
2022/10/19 10:05:33;;;;;;;11.57;7.80;;;13.70;73.30;;;;;;4799102;29;20042;-49
2022/10/19 10:08:00;;;;;;;10.13;6.97;;;13.80;73.60;;;;;;4802056;29;20057;-49
2022/10/19 10:10:31;;;;;;;10.77;7.10;;;13.90;73.30;;;;;;4793953;29;20516;-46
2022/10/19 10:12:59;;;;;;;9.70;6.65;;;13.90;73.20;;;;;;4801193;29;20070;-48
2022/10/19 10:15:41;;;;;;;8.70;6.63;;;14.00;73.10;;;;;;4801927;29;20043;-50
2022/10/19 10:18:14;;;;;;;17.13;7.90;;;14.10;73.20;;;;;;4803025;29;20043;-48
2022/10/19 10:20:58;;;;;;;10.00;7.38;;;14.10;72.90;;;;;;4808821;29;20141;-46
2022/10/19 10:23:30;;;;;;;14.18;7.65;;;14.20;72.80;;;;;;4807343;29;20063;-47
2022/10/19 10:25:59;;;;;;;11.48;7.43;;;14.30;72.60;;;;;;4804023;29;20428;-47
2022/10/19 10:28:27;;;;;;;11.30;7.80;;;14.30;72.40;;;;;;4805762;29;20085;-49
2022/10/19 10:31:03;;;;;;;10.43;7.43;;;14.40;72.60;;;;;;4804563;29;20700;-50
2022/10/19 10:33:33;;;;;;;10.23;7.78;;;14.50;72.50;;;;;;4806849;29;20078;-47
2022/10/19 10:36:11;;;;;;;11.18;7.78;;;14.50;72.40;;;;;;4807419;29;20050;-48
2022/10/19 10:38:47;;;;;;;13.30;7.97;;;14.60;72.00;;;;;;4803925;29;20042;-50
2022/10/19 10:41:19;;;;;;;10.20;6.65;;;14.70;71.60;;;;;;4807145;29;20043;-49
2022/10/19 10:43:57;;;;;;;9.27;6.47;;;14.70;71.50;;;;;;4805845;29;20051;-49
2022/10/19 10:46:50;;;;;;;11.27;6.47;;;14.80;71.40;;;;;;4805601;29;20055;-48
2022/10/19 10:49:26;;;;;;;11.23;6.25;;;14.90;71.30;;;;;;4805051;29;20053;-49
2022/10/19 10:52:12;;;;;;;9.80;6.65;;;14.90;71.20;;;;;;4806680;29;20043;-50
2022/10/19 10:54:39;;;;;;;10.00;6.13;;;14.90;70.90;;;;;;4808635;29;20049;-50
2022/10/19 10:57:17;;;;;;;8.18;5.65;;;15.00;70.70;;;;;;4807427;29;20046;-47
2022/10/19 10:59:57;;;;;;;9.93;6.55;;;15.00;70.40;;;;;;4807870;29;20058;-48
2022/10/19 11:02:49;;;;;;;7.93;6.20;;;15.10;70.50;;;;;;4804610;29;20408;-50
2022/10/19 11:05:30;;;;;;;10.82;5.45;;;15.10;70.30;;;;;;4807404;29;20078;-50
2022/10/19 11:08:13;;;;;;;10.52;5.25;;;15.20;69.60;;;;;;4804928;29;20524;-49
2022/10/19 11:10:50;;;;;;;8.45;5.00;;;15.30;69.50;;;;;;4807160;29;20046;-49
2022/10/19 11:13:55;;;;;;;10.82;4.55;;;15.30;69.60;;;;;;4807215;29;20047;-49
2022/10/19 11:16:33;;;;;;;6.82;4.60;;;15.40;69.30;;;;;;4804446;29;20130;-47
2022/10/19 11:19:19;;;;;;;6.03;3.63;;;15.40;69.00;;;;;;4808486;29;20122;-50
2022/10/19 11:22:03;;;;;;;7.30;4.13;;;15.50;69.00;;;;;;4821587;29;20067;-49
2022/10/19 11:24:39;;;;;;;6.05;5.13;;;15.50;68.80;;;;;;4802988;29;20584;-46
2022/10/19 11:27:20;;;;;;;5.30;3.58;;;15.50;68.80;;;;;;4806604;29;20047;-47
2022/10/19 11:30:00;;;;;;;8.32;4.30;;;15.60;68.30;;;;;;4809057;29;20060;-48
2022/10/19 11:33:04;;;;;;;5.22;4.20;;;15.60;68.20;;;;;;4806539;29;20047;-48
2022/10/19 11:35:44;;;;;;;9.23;4.20;;;15.70;68.10;;;;;;4804891;29;20624;-44
2022/10/19 11:38:37;;;;;;;8.48;4.85;;;15.70;68.90;;;;;;4806071;29;20833;-47
2022/10/19 11:41:09;;;;;;;8.00;4.07;;;15.90;68.50;;;;;;4805652;29;20049;-52
2022/10/19 11:44:01;;;;;;;7.60;3.80;;;15.80;68.40;;;;;;4802357;29;20486;-46
2022/10/19 11:46:40;;;;;;;4.53;3.67;;;15.80;67.90;;;;;;4805784;29;20084;-49
2022/10/19 11:49:30;;;;;;;6.55;4.18;;;15.80;67.60;;;;;;4805628;29;20053;-48
2022/10/19 11:52:23;;;;;;;4.20;3.78;;;15.90;67.40;;;;;;4805517;29;20051;-48
2022/10/19 11:54:56;;;;;;;6.55;3.33;;;15.90;67.40;;;;;;4805050;29;20438;-46
2022/10/19 11:57:31;;;;;;;;;;;16.00;66.80;;;;;;4804188;29;20117;-45
2022/10/19 12:00:20;;;;;;;6.18;3.13;;;16.10;67.50;;;;;;4803124;29;19924;-49
2022/10/19 12:03:17;;;;;;;4.93;4.18;;;16.10;66.10;;;;;;4799897;29;20038;-49
2022/10/19 12:06:09;;;;;;;5.38;3.38;;;16.20;65.90;;;;;;4805377;29;20508;-49
2022/10/19 12:08:39;;;;;;;;;;;16.20;65.60;;;;;;4804679;29;20070;-47
2022/10/19 12:12:00;;;;;;;5.43;2.83;;;16.30;66.60;;;;;;4801206;29;19982;-46
2022/10/19 12:14:32;;;;;;;6.43;3.17;;;16.30;65.40;;;;;;4784834;30;20083;-49
2022/10/19 12:17:08;;;;;;;4.72;2.50;;;16.30;65.50;;;;;;4804153;29;20062;-50
2022/10/19 12:19:41;;;;;;;6.65;4.13;;;16.40;65.30;;;;;;4797895;29;20066;-48
2022/10/19 12:22:15;;;;;;;4.68;2.88;;;16.40;65.10;;;;;;4800907;29;20491;-48
2022/10/19 12:24:42;;;;;;;7.40;3.15;;;16.50;65.30;;;;;;4805145;29;20481;-49
2022/10/19 12:27:13;;;;;;;4.80;2.28;;;16.50;65.40;;;;;;4805430;29;20057;-49
2022/10/19 12:29:44;;;;;;;5.30;2.50;;;16.60;64.80;;;;;;4805155;29;20572;-49
2022/10/19 12:32:15;;;;;;;4.57;2.38;;;16.60;64.80;;;;;;4800718;29;20179;-49
2022/10/19 12:34:53;;;;;;;6.28;3.13;;;16.70;64.50;;;;;;4802835;29;20500;-46
2022/10/19 12:38:04;;;;;;;5.43;2.55;;;16.70;63.60;;;;;;4805122;29;20125;-47
2022/10/19 12:40:49;;;;;;;6.70;2.53;;;16.80;63.10;;;;;;4799726;29;20043;-46
2022/10/19 12:43:32;;;;;;;6.78;2.58;;;16.80;63.40;;;;;;4803735;29;20043;-47
2022/10/19 12:46:06;;;;;;;3.65;2.58;;;16.90;63.60;;;;;;4803981;29;20511;-48
2022/10/19 12:48:35;;;;;;;4.05;2.33;;;16.90;63.60;;;;;;4803472;29;20126;-47
2022/10/19 12:51:05;;;;;;;3.47;2.22;;;17.00;63.10;;;;;;4803613;29;20592;-48
2022/10/19 12:53:40;;;;;;;3.33;2.10;;;17.00;62.80;;;;;;4804513;29;20051;-48
2022/10/19 12:56:16;;;;;;;5.90;1.98;;;17.10;62.30;;;;;;4793064;29;20051;-48
2022/10/19 12:58:42;;;;;;;4.15;2.00;;;17.10;62.40;;;;;;4801429;29;20141;-45
2022/10/19 13:01:27;;;;;;;5.28;2.15;;;17.20;62.30;;;;;;4797834;29;20043;-46
2022/10/19 13:04:18;;;;;;;4.15;1.83;;;17.30;61.60;;;;;;4801156;29;20182;-48
2022/10/19 13:07:00;;;;;;;5.88;2.00;;;17.40;61.30;;;;;;4813014;29;20050;-48
2022/10/19 13:09:35;;;;;;;3.90;2.17;;;17.40;61.60;;;;;;4801319;29;20055;-48
2022/10/19 13:12:14;;;;;;;6.65;2.35;;;17.50;61.50;;;;;;4802165;29;20299;-49
2022/10/19 13:14:58;;;;;;;4.72;2.08;;;17.60;61.40;;;;;;4804714;29;20061;-47